Penkridge, United Kingdom
Current Conditions -  °F | °C
As of 8:50 PM on Sunday 23 Nov 2014 (Local Time) from EGOS Reporting Station
Broken Clouds Broken Clouds  
Wind Chill: 31°   Ceiling: 3400
Heat Index: 37°   Visibility: 6mi
Dew Point: 36°   Wind: 9mph
Humidity: 93%   Direction: 250°WSW
Pressure: 30.15"   Gusts: NA
Location:  52.73°N, 2.12°W
Report Text: EGOS 232050Z AUTO 25008KT 9999 BKN034/// 03/02 Q1021
Loading
Personal Weather Stations






























Interactive Weather Map New forecast layout! Learn more

10-Day Weather Forecast

Advertisements
Track Severe Weather on mobile